Luddenden Foot, United Kingdom
Current Conditions -  °F | °C
As of 8:20 AM on Tuesday 27 Jan 2015 (Local Time) from EGNM Reporting Station
Broken Clouds Broken Clouds  
Wind Chill: 34°   Ceiling: 900
Heat Index: 41°   Visibility: 6mi
Dew Point: 39°   Wind: 12mph
Humidity: 93%   Direction: 280°W
Pressure: 30.27"   Gusts: NA
Location:  53.72°N, 1.95°W
Report Text: EGNM 270820Z 28010KT 9999 FEW005 BKN009 05/04 Q1025
Loading
Personal Weather Stations






























Interactive Weather Map New forecast layout! Learn more

10-Day Weather Forecast

Advertisements
Track Severe Weather on mobile